createdAt,value
2019-05-17T00:00:27.377Z,0.00
2019-05-17T00:01:27.060Z,0.00
2019-05-17T00:02:26.637Z,0.00
2019-05-17T00:03:28.316Z,0.00
2019-05-17T00:04:27.019Z,0.00
2019-05-17T00:05:26.584Z,0.00
2019-05-17T00:06:27.568Z,0.00
2019-05-17T00:07:27.321Z,0.00
2019-05-17T00:08:33.883Z,0.00
2019-05-17T00:09:27.323Z,0.00
2019-05-17T00:10:26.803Z,0.00
2019-05-17T00:11:27.310Z,0.00
2019-05-17T00:12:27.082Z,0.00
2019-05-17T00:13:26.829Z,0.00
2019-05-17T00:14:27.132Z,0.00
2019-05-17T00:15:27.328Z,0.00
2019-05-17T00:16:26.937Z,0.00
2019-05-17T00:17:26.726Z,0.00
2019-05-17T00:18:26.805Z,0.00
2019-05-17T00:19:26.409Z,0.00
2019-05-17T00:20:26.571Z,0.00
2019-05-17T00:21:27.536Z,0.00
2019-05-17T00:22:27.049Z,0.00
2019-05-17T00:23:27.840Z,0.00
2019-05-17T00:24:26.634Z,0.00
2019-05-17T00:25:27.377Z,0.00
2019-05-17T00:26:26.927Z,0.00
2019-05-17T00:27:26.462Z,0.00
2019-05-17T00:28:26.909Z,0.00
2019-05-17T00:29:26.480Z,0.00
2019-05-17T00:30:26.605Z,0.00
2019-05-17T00:31:26.391Z,0.00
2019-05-17T00:32:27.456Z,0.00
2019-05-17T00:33:27.190Z,0.00
2019-05-17T00:34:27.027Z,0.00
2019-05-17T00:35:26.771Z,0.00
2019-05-17T00:36:26.943Z,0.00
2019-05-17T00:37:26.801Z,0.00
2019-05-17T00:38:27.408Z,0.00
2019-05-17T00:39:27.207Z,0.00
2019-05-17T00:40:27.099Z,0.00
2019-05-17T00:41:26.881Z,0.00
2019-05-17T00:42:26.406Z,0.00
2019-05-17T00:43:26.296Z,0.00
2019-05-17T00:44:27.214Z,0.00
2019-05-17T00:45:26.723Z,0.00
2019-05-17T00:46:26.853Z,0.00
2019-05-17T00:47:26.803Z,0.00
2019-05-17T00:48:26.499Z,0.00
2019-05-17T00:49:26.410Z,0.00
2019-05-17T00:50:27.497Z,0.00
2019-05-17T00:51:27.379Z,0.00
2019-05-17T00:52:27.276Z,0.00
2019-05-17T00:53:26.930Z,0.00
2019-05-17T00:54:26.937Z,0.00
2019-05-17T00:55:26.801Z,0.00
2019-05-17T00:56:26.619Z,0.00
2019-05-17T00:57:27.391Z,0.00
2019-05-17T00:58:26.343Z,0.00
2019-05-17T00:59:26.284Z,0.00
2019-05-17T01:00:27.803Z,0.00
2019-05-17T01:01:27.026Z,0.00
2019-05-17T01:02:27.029Z,0.00
2019-05-17T01:03:26.930Z,0.00
2019-05-17T01:04:27.594Z,0.00
2019-05-17T01:05:27.462Z,0.00
2019-05-17T01:06:27.550Z,0.00
2019-05-17T01:07:26.861Z,0.00
2019-05-17T01:08:26.564Z,0.00
2019-05-17T01:09:29.331Z,0.00
2019-05-17T01:10:27.221Z,0.00
2019-05-17T01:11:27.063Z,0.00
2019-05-17T01:12:27.183Z,0.00
2019-05-17T01:13:26.724Z,0.00
2019-05-17T01:14:26.589Z,0.00
2019-05-17T01:15:27.335Z,0.00
2019-05-17T01:16:27.243Z,0.00
2019-05-17T01:17:27.096Z,0.00
2019-05-17T01:18:26.951Z,0.00
2019-05-17T01:19:27.024Z,0.00
2019-05-17T01:20:27.590Z,0.00
2019-05-17T01:21:26.316Z,0.00
2019-05-17T01:22:26.285Z,0.00
2019-05-17T01:23:28.305Z,0.00
2019-05-17T01:24:27.429Z,0.00
2019-05-17T01:25:27.256Z,0.00
2019-05-17T01:26:26.721Z,0.00
2019-05-17T01:27:26.350Z,0.00
2019-05-17T01:28:26.998Z,0.00
2019-05-17T01:29:26.804Z,0.00
2019-05-17T01:30:30.316Z,0.00
2019-05-17T01:31:26.575Z,0.00
2019-05-17T01:32:26.672Z,0.00
2019-05-17T01:33:26.488Z,0.00
2019-05-17T01:34:27.289Z,0.00
2019-05-17T01:35:26.652Z,0.00
2019-05-17T01:36:26.378Z,0.00
2019-05-17T01:37:27.541Z,0.00
2019-05-17T01:38:26.928Z,0.00
2019-05-17T01:39:26.885Z,0.00
2019-05-17T01:40:26.480Z,0.00
2019-05-17T01:41:26.694Z,0.00
2019-05-17T01:42:26.515Z,0.00
2019-05-17T01:43:27.293Z,0.00
2019-05-17T01:44:27.242Z,0.00
2019-05-17T01:45:26.944Z,0.00
2019-05-17T01:46:26.540Z,0.00
2019-05-17T01:47:27.204Z,0.00
2019-05-17T01:48:27.064Z,0.00
2019-05-17T01:49:27.068Z,0.00
2019-05-17T01:50:26.644Z,0.00
2019-05-17T01:51:26.333Z,0.00
2019-05-17T01:52:27.192Z,0.00
2019-05-17T01:53:27.044Z,0.00
2019-05-17T01:54:26.886Z,0.00
2019-05-17T01:55:26.550Z,0.00
2019-05-17T01:56:26.286Z,0.00
2019-05-17T01:57:27.284Z,0.00
2019-05-17T01:58:26.943Z,0.00
2019-05-17T01:59:26.769Z,0.00
2019-05-17T02:00:26.574Z,0.00
2019-05-17T02:01:27.398Z,0.00
2019-05-17T02:02:27.025Z,0.00
2019-05-17T02:03:26.783Z,0.00
2019-05-17T02:04:26.810Z,0.00
2019-05-17T02:05:27.232Z,0.00
2019-05-17T02:06:26.989Z,0.00
2019-05-17T02:07:26.730Z,0.00
2019-05-17T02:08:26.456Z,0.00
2019-05-17T02:09:37.345Z,0.00
2019-05-17T02:10:27.169Z,0.00
2019-05-17T02:11:26.946Z,0.00
2019-05-17T02:12:26.718Z,0.00
2019-05-17T02:13:26.817Z,0.00
2019-05-17T02:14:26.710Z,0.00
2019-05-17T02:15:26.761Z,0.00
2019-05-17T02:16:26.731Z,0.00
2019-05-17T02:17:26.569Z,0.00
2019-05-17T02:18:26.629Z,0.00
2019-05-17T02:19:26.528Z,0.00
2019-05-17T02:20:24.836Z,0.00
2019-05-17T02:21:27.472Z,0.00
2019-05-17T02:22:27.083Z,0.00
2019-05-17T02:23:26.858Z,0.00
2019-05-17T02:24:27.376Z,0.00
2019-05-17T02:25:27.095Z,0.00
2019-05-17T02:26:26.684Z,0.00
2019-05-17T02:27:28.454Z,0.00
2019-05-17T02:28:25.737Z,0.00
2019-05-17T02:29:24.759Z,0.00
2019-05-17T02:30:24.731Z,0.00
2019-05-17T02:31:25.325Z,0.00
2019-05-17T02:32:24.700Z,0.00
2019-05-17T02:33:24.692Z,0.00
2019-05-17T02:34:25.825Z,0.00
2019-05-17T02:35:24.681Z,0.00
2019-05-17T02:36:24.701Z,0.00
2019-05-17T02:37:24.644Z,0.00
2019-05-17T02:38:24.630Z,0.00
2019-05-17T02:39:24.644Z,0.00
2019-05-17T02:40:24.612Z,0.00
2019-05-17T02:41:25.322Z,0.00
2019-05-17T02:42:24.586Z,0.00
2019-05-17T02:43:24.575Z,0.00
2019-05-17T02:44:24.593Z,0.00
2019-05-17T02:45:24.557Z,0.00
2019-05-17T02:46:24.549Z,0.00
2019-05-17T02:47:24.587Z,0.00
2019-05-17T02:48:25.364Z,0.00
2019-05-17T02:49:24.564Z,0.00
2019-05-17T02:50:24.517Z,0.00
2019-05-17T02:51:24.487Z,0.00
2019-05-17T02:52:24.489Z,0.00
2019-05-17T02:53:24.460Z,0.00
2019-05-17T02:54:24.465Z,0.00
2019-05-17T02:55:24.465Z,0.00
2019-05-17T02:56:24.431Z,0.00
2019-05-17T02:57:24.422Z,0.00
2019-05-17T02:58:24.432Z,0.00
2019-05-17T02:59:24.395Z,0.00
2019-05-17T03:00:24.409Z,0.00
2019-05-17T03:01:24.380Z,0.00
2019-05-17T03:02:27.997Z,0.00
2019-05-17T03:03:24.362Z,0.00
2019-05-17T03:04:24.349Z,0.00
2019-05-17T03:05:24.365Z,0.00
2019-05-17T03:06:24.314Z,0.00
2019-05-17T03:07:24.320Z,0.00
2019-05-17T03:08:24.293Z,0.00
2019-05-17T03:09:24.292Z,0.00
2019-05-17T03:10:28.839Z,0.00
2019-05-17T03:11:24.260Z,0.00
2019-05-17T03:12:24.247Z,0.00
2019-05-17T03:13:24.245Z,0.00
2019-05-17T03:14:24.226Z,0.00
2019-05-17T03:15:24.263Z,0.00
2019-05-17T03:16:24.201Z,0.00
2019-05-17T03:17:24.220Z,0.00
2019-05-17T03:18:24.179Z,0.00
2019-05-17T03:19:24.192Z,0.00
2019-05-17T03:20:24.195Z,0.00
2019-05-17T03:21:24.185Z,0.00
2019-05-17T03:22:24.134Z,0.00
2019-05-17T03:23:24.125Z,0.00
2019-05-17T03:24:24.122Z,0.00
2019-05-17T03:25:24.773Z,0.00
2019-05-17T03:26:24.091Z,0.00
2019-05-17T03:27:24.079Z,5.62
2019-05-17T03:28:24.072Z,5.62
2019-05-17T03:29:24.065Z,5.62
2019-05-17T03:30:26.000Z,5.62
2019-05-17T03:31:26.643Z,5.62
2019-05-17T03:32:26.594Z,5.62
2019-05-17T03:33:26.656Z,5.62
2019-05-17T03:34:26.615Z,5.62
2019-05-17T03:35:26.411Z,5.62
2019-05-17T03:36:25.959Z,11.25
2019-05-17T03:37:30.198Z,11.25
2019-05-17T03:38:24.957Z,11.25
2019-05-17T03:39:23.946Z,11.25
2019-05-17T03:40:47.411Z,11.25
2019-05-17T03:41:29.168Z,11.25
2019-05-17T03:42:23.995Z,16.88
2019-05-17T03:43:23.947Z,16.88
2019-05-17T03:44:23.899Z,16.88
2019-05-17T03:45:23.913Z,16.88
2019-05-17T03:46:23.869Z,16.88
2019-05-17T03:47:23.871Z,22.50
2019-05-17T03:48:23.857Z,22.50
2019-05-17T03:49:23.861Z,22.50
2019-05-17T03:50:23.851Z,22.50
2019-05-17T03:51:23.812Z,28.12
2019-05-17T03:52:23.825Z,28.12
2019-05-17T03:53:23.840Z,33.75
2019-05-17T03:54:23.815Z,33.75
2019-05-17T03:55:23.811Z,33.75
2019-05-17T03:56:23.770Z,39.38
2019-05-17T03:57:24.191Z,39.38
2019-05-17T03:58:23.800Z,39.38
2019-05-17T03:59:24.389Z,45.00
2019-05-17T04:00:24.257Z,50.62
2019-05-17T04:01:24.313Z,56.25
2019-05-17T04:02:23.695Z,61.88
2019-05-17T04:03:23.689Z,61.88
2019-05-17T04:04:23.665Z,67.50
2019-05-17T04:05:23.772Z,73.12
2019-05-17T04:06:24.084Z,78.75
2019-05-17T04:07:23.864Z,84.38
2019-05-17T04:08:23.644Z,90.00
2019-05-17T04:09:23.614Z,95.62
2019-05-17T04:10:23.635Z,95.62
2019-05-17T04:11:31.321Z,101.25
2019-05-17T04:12:24.579Z,106.88
2019-05-17T04:13:23.809Z,106.88
2019-05-17T04:14:23.563Z,106.88
2019-05-17T04:15:24.294Z,106.88
2019-05-17T04:16:23.957Z,112.50
2019-05-17T04:17:23.537Z,118.12
2019-05-17T04:18:23.766Z,118.12
2019-05-17T04:19:23.509Z,123.75
2019-05-17T04:20:23.530Z,129.38
2019-05-17T04:21:23.810Z,135.00
2019-05-17T04:22:24.016Z,135.00
2019-05-17T04:23:23.589Z,140.62
2019-05-17T04:24:23.479Z,140.62
2019-05-17T04:25:23.590Z,140.62
2019-05-17T04:26:23.423Z,135.00
2019-05-17T04:27:26.333Z,146.25
2019-05-17T04:28:24.323Z,151.88
2019-05-17T04:29:23.413Z,157.50
2019-05-17T04:30:23.627Z,151.88
2019-05-17T04:31:23.424Z,129.38
2019-05-17T04:32:23.639Z,129.38
2019-05-17T04:33:23.660Z,140.62
2019-05-17T04:34:23.331Z,140.62
2019-05-17T04:35:23.501Z,140.62
2019-05-17T04:36:23.320Z,140.62
2019-05-17T04:37:23.811Z,146.25
2019-05-17T04:38:24.112Z,146.25
2019-05-17T04:39:23.324Z,157.50
2019-05-17T04:40:23.427Z,163.12
2019-05-17T04:41:40.153Z,157.50
2019-05-17T04:42:23.257Z,151.88
2019-05-17T04:43:23.473Z,146.25
2019-05-17T04:44:23.327Z,151.88
2019-05-17T04:45:23.461Z,163.12
2019-05-17T04:46:24.834Z,157.50
2019-05-17T04:47:23.251Z,151.88
2019-05-17T04:48:23.879Z,146.25
2019-05-17T04:49:24.215Z,140.62
2019-05-17T04:50:23.335Z,146.25
2019-05-17T04:51:23.413Z,157.50
2019-05-17T04:52:23.136Z,157.50
2019-05-17T04:53:23.539Z,157.50
2019-05-17T04:54:23.129Z,157.50
2019-05-17T04:55:23.330Z,168.75
2019-05-17T04:56:23.158Z,168.75
2019-05-17T04:57:23.361Z,185.62
2019-05-17T04:58:23.483Z,196.88
2019-05-17T04:59:24.281Z,196.88
2019-05-17T05:00:23.076Z,196.88
2019-05-17T05:01:23.712Z,208.12
2019-05-17T05:02:23.739Z,213.75
2019-05-17T05:03:23.405Z,225.00
2019-05-17T05:04:23.008Z,230.62
2019-05-17T05:05:23.146Z,241.88
2019-05-17T05:06:23.492Z,253.12
2019-05-17T05:07:22.961Z,258.75
2019-05-17T05:08:23.002Z,264.38
2019-05-17T05:09:23.258Z,258.75
2019-05-17T05:10:23.022Z,264.38
2019-05-17T05:11:23.459Z,270.00
2019-05-17T05:12:23.061Z,264.38
2019-05-17T05:13:23.034Z,258.75
2019-05-17T05:14:23.436Z,264.38
2019-05-17T05:15:22.911Z,264.38
2019-05-17T05:16:22.902Z,264.38
2019-05-17T05:17:22.858Z,264.38
2019-05-17T05:18:22.885Z,253.12
2019-05-17T05:19:22.835Z,241.88
2019-05-17T05:20:23.319Z,236.25
2019-05-17T05:21:23.212Z,236.25
2019-05-17T05:22:22.818Z,253.12
2019-05-17T05:23:23.864Z,270.00
2019-05-17T05:24:22.791Z,270.00
2019-05-17T05:25:22.765Z,270.00
2019-05-17T05:26:22.801Z,270.00
2019-05-17T05:27:22.756Z,275.62
2019-05-17T05:28:22.772Z,281.25
2019-05-17T05:29:22.743Z,281.25
2019-05-17T05:30:22.771Z,281.25
2019-05-17T05:31:22.916Z,275.62
2019-05-17T05:32:22.720Z,270.00
2019-05-17T05:33:22.683Z,270.00
2019-05-17T05:34:22.685Z,281.25
2019-05-17T05:35:22.717Z,281.25
2019-05-17T05:36:22.669Z,281.25
2019-05-17T05:37:23.264Z,281.25
2019-05-17T05:38:22.630Z,281.25
2019-05-17T05:39:22.923Z,286.88
2019-05-17T05:40:22.624Z,292.50
2019-05-17T05:41:22.731Z,303.75
2019-05-17T05:42:22.643Z,309.38
2019-05-17T05:43:22.809Z,309.38
2019-05-17T05:44:22.560Z,303.75
2019-05-17T05:45:22.598Z,315.00
2019-05-17T05:46:22.631Z,315.00
2019-05-17T05:47:22.562Z,309.38
2019-05-17T05:48:22.522Z,309.38
2019-05-17T05:49:22.499Z,315.00
2019-05-17T05:50:22.513Z,315.00
2019-05-17T05:51:22.498Z,309.38
2019-05-17T05:52:22.467Z,309.38
2019-05-17T05:53:22.545Z,309.38
2019-05-17T05:54:22.660Z,315.00
2019-05-17T05:55:23.455Z,315.00
2019-05-17T05:56:22.448Z,320.62
2019-05-17T05:57:22.414Z,309.38
2019-05-17T05:58:23.933Z,315.00
2019-05-17T05:59:22.598Z,326.25
2019-05-17T06:00:22.433Z,337.50
2019-05-17T06:01:22.413Z,343.12
2019-05-17T06:02:22.372Z,337.50
2019-05-17T06:03:22.589Z,365.62
2019-05-17T06:04:22.439Z,376.88
2019-05-17T06:05:22.335Z,393.75
2019-05-17T06:06:23.309Z,416.25
2019-05-17T06:07:22.313Z,427.50
2019-05-17T06:08:22.902Z,410.62
2019-05-17T06:09:22.506Z,450.00
2019-05-17T06:10:22.259Z,528.75
2019-05-17T06:11:22.290Z,596.25
2019-05-17T06:12:27.679Z,675.00
2019-05-17T06:13:23.247Z,658.12
2019-05-17T06:14:22.251Z,635.62
2019-05-17T06:15:22.227Z,630.00
2019-05-17T06:16:22.708Z,641.25
2019-05-17T06:17:22.193Z,652.50
2019-05-17T06:18:22.788Z,658.12
2019-05-17T06:19:22.459Z,708.75
2019-05-17T06:20:22.487Z,770.62
2019-05-17T06:21:22.621Z,776.25
2019-05-17T06:22:22.828Z,866.25
2019-05-17T06:23:23.493Z,1046.25
2019-05-17T06:24:22.584Z,1018.12
2019-05-17T06:25:23.445Z,1153.12
2019-05-17T06:26:23.740Z,1130.62
2019-05-17T06:27:22.070Z,1918.12
2019-05-17T06:28:22.399Z,1400.62
2019-05-17T06:29:22.285Z,1366.88
2019-05-17T06:30:22.150Z,1186.88
2019-05-17T06:31:24.112Z,1687.50
2019-05-17T06:32:22.776Z,1918.12
2019-05-17T06:33:30.709Z,1586.25
2019-05-17T06:34:23.000Z,1018.12
2019-05-17T06:35:21.997Z,1220.62
2019-05-17T06:36:22.057Z,1800.00
2019-05-17T06:37:22.483Z,1929.38
2019-05-17T06:38:22.493Z,978.75
2019-05-17T06:39:22.487Z,1001.25
2019-05-17T06:40:21.947Z,810.00
2019-05-17T06:41:21.944Z,978.75
2019-05-17T06:42:37.054Z,1563.75
2019-05-17T06:43:22.901Z,1805.62
2019-05-17T06:44:21.973Z,1181.25
2019-05-17T06:45:22.153Z,1310.62
2019-05-17T06:46:22.855Z,894.38
2019-05-17T06:47:22.549Z,916.88
2019-05-17T06:48:22.579Z,793.12
2019-05-17T06:49:22.419Z,866.25
2019-05-17T06:50:23.611Z,995.62
2019-05-17T06:51:22.137Z,849.38
2019-05-17T06:52:22.583Z,1923.75
2019-05-17T06:53:22.116Z,2317.50
2019-05-17T06:54:21.783Z,2171.25
2019-05-17T06:55:21.771Z,1850.62
2019-05-17T06:56:22.946Z,2070.00
2019-05-17T06:57:23.259Z,2025.00
2019-05-17T06:58:22.264Z,2008.12
2019-05-17T06:59:21.712Z,1586.25
2019-05-17T07:00:23.913Z,1985.62
2019-05-17T07:01:21.747Z,1828.12
2019-05-17T07:02:21.710Z,1861.88
2019-05-17T07:03:21.729Z,1906.88
2019-05-17T07:04:21.665Z,686.25
2019-05-17T07:05:21.659Z,1850.62
2019-05-17T07:06:21.678Z,2295.00
2019-05-17T07:07:22.810Z,2317.50
2019-05-17T07:08:21.613Z,2154.38
2019-05-17T07:09:21.612Z,2148.75
2019-05-17T07:10:21.591Z,652.50
2019-05-17T07:11:21.589Z,708.75
2019-05-17T07:12:21.608Z,933.75
2019-05-17T07:13:21.560Z,2424.38
2019-05-17T07:14:21.559Z,1710.00
2019-05-17T07:15:21.535Z,2278.12
2019-05-17T07:16:21.564Z,2176.88
2019-05-17T07:17:21.542Z,826.88
2019-05-17T07:18:21.528Z,838.12
2019-05-17T07:19:21.489Z,2559.38
2019-05-17T07:20:21.589Z,961.88
2019-05-17T07:21:21.479Z,742.50
2019-05-17T07:22:21.593Z,596.25
2019-05-17T07:23:21.455Z,545.62
2019-05-17T07:24:21.445Z,562.50
2019-05-17T07:25:21.422Z,697.50
2019-05-17T07:26:21.438Z,832.50
2019-05-17T07:27:21.455Z,1063.12
2019-05-17T07:28:21.410Z,1001.25
2019-05-17T07:29:21.410Z,911.25
2019-05-17T07:30:21.439Z,815.62
2019-05-17T07:31:23.254Z,787.50
2019-05-17T07:32:21.397Z,787.50
2019-05-17T07:33:21.343Z,753.75
2019-05-17T07:34:21.328Z,736.88
2019-05-17T07:35:21.316Z,714.38
2019-05-17T07:36:21.313Z,703.12
2019-05-17T07:37:21.343Z,725.62
2019-05-17T07:38:21.280Z,748.12
2019-05-17T07:39:21.263Z,793.12
2019-05-17T07:40:21.295Z,826.88
2019-05-17T07:41:21.248Z,871.88
2019-05-17T07:42:21.268Z,905.62
2019-05-17T07:43:21.223Z,916.88
2019-05-17T07:44:21.213Z,995.62
2019-05-17T07:45:21.226Z,815.62
2019-05-17T07:46:21.207Z,686.25
2019-05-17T07:47:21.196Z,573.75
2019-05-17T07:48:21.169Z,483.75
2019-05-17T07:49:21.214Z,416.25
2019-05-17T07:50:21.142Z,393.75
2019-05-17T07:51:21.130Z,393.75
2019-05-17T07:52:21.833Z,410.62
2019-05-17T07:53:21.109Z,433.12
2019-05-17T07:54:21.110Z,466.88
2019-05-17T07:55:23.055Z,506.25
2019-05-17T07:56:21.083Z,556.88
2019-05-17T07:57:21.104Z,590.62
2019-05-17T07:58:21.507Z,635.62
2019-05-17T07:59:21.087Z,669.38
2019-05-17T08:00:21.053Z,686.25
2019-05-17T08:01:21.051Z,714.38
2019-05-17T08:02:21.039Z,753.75
2019-05-17T08:03:24.228Z,765.00
2019-05-17T08:04:21.002Z,759.38
2019-05-17T08:05:21.577Z,759.38
2019-05-17T08:06:20.965Z,787.50
2019-05-17T08:07:21.007Z,787.50
2019-05-17T08:08:21.026Z,798.75
2019-05-17T08:09:20.943Z,798.75
2019-05-17T08:10:20.927Z,765.00
2019-05-17T08:11:20.911Z,765.00
2019-05-17T08:12:20.954Z,691.88
2019-05-17T08:13:30.053Z,624.38
2019-05-17T08:14:29.565Z,568.12
2019-05-17T08:15:21.871Z,523.12
2019-05-17T08:16:20.859Z,483.75
2019-05-17T08:17:20.877Z,450.00
2019-05-17T08:18:20.879Z,416.25
2019-05-17T08:19:20.821Z,399.38
2019-05-17T08:20:20.815Z,393.75
2019-05-17T08:21:20.808Z,376.88
2019-05-17T08:22:20.827Z,354.38
2019-05-17T08:23:20.811Z,337.50
2019-05-17T08:24:20.762Z,326.25
2019-05-17T08:25:20.776Z,309.38
2019-05-17T08:26:20.741Z,298.12
2019-05-17T08:27:20.759Z,298.12
2019-05-17T08:28:21.604Z,309.38
2019-05-17T08:29:20.727Z,337.50
2019-05-17T08:30:20.957Z,343.12
2019-05-17T08:31:20.691Z,354.38
2019-05-17T08:32:20.958Z,382.50
2019-05-17T08:33:20.668Z,421.88
2019-05-17T08:34:20.661Z,455.62
2019-05-17T08:35:20.645Z,478.12
2019-05-17T08:36:20.671Z,489.38
2019-05-17T08:37:20.649Z,511.88
2019-05-17T08:38:20.610Z,545.62
2019-05-17T08:39:20.605Z,579.38
2019-05-17T08:40:20.588Z,607.50
2019-05-17T08:41:20.936Z,618.75
2019-05-17T08:42:20.652Z,630.00
2019-05-17T08:43:21.293Z,624.38
2019-05-17T08:44:20.536Z,596.25
2019-05-17T08:45:20.803Z,556.88
2019-05-17T08:46:20.524Z,511.88
2019-05-17T08:47:21.055Z,483.75
2019-05-17T08:48:20.756Z,455.62
2019-05-17T08:49:20.482Z,444.38
2019-05-17T08:50:20.474Z,438.75
2019-05-17T08:51:20.462Z,399.38
2019-05-17T08:52:21.384Z,365.62
2019-05-17T08:53:20.440Z,343.12
2019-05-17T08:54:20.433Z,354.38
2019-05-17T08:55:20.578Z,376.88
2019-05-17T08:56:20.630Z,410.62
2019-05-17T08:57:20.701Z,438.75
2019-05-17T08:58:21.644Z,466.88
2019-05-17T08:59:20.382Z,517.50
2019-05-17T09:00:20.839Z,585.00
2019-05-17T09:01:20.367Z,663.75
2019-05-17T09:02:20.391Z,720.00
2019-05-17T09:03:20.353Z,759.38
2019-05-17T09:04:20.314Z,798.75
2019-05-17T09:05:21.105Z,843.75
2019-05-17T09:06:20.310Z,871.88
2019-05-17T09:07:20.539Z,888.75
2019-05-17T09:08:20.690Z,855.00
2019-05-17T09:09:20.484Z,781.88
2019-05-17T09:10:20.812Z,731.25
2019-05-17T09:11:20.275Z,675.00
2019-05-17T09:12:20.738Z,613.12
2019-05-17T09:13:21.379Z,568.12
2019-05-17T09:14:21.469Z,534.38
2019-05-17T09:15:20.482Z,495.00
2019-05-17T09:16:20.214Z,427.50
2019-05-17T09:17:20.169Z,416.25
2019-05-17T09:18:20.761Z,427.50
2019-05-17T09:19:20.166Z,410.62
2019-05-17T09:20:20.564Z,405.00
2019-05-17T09:21:21.896Z,382.50
2019-05-17T09:22:20.121Z,354.38
2019-05-17T09:23:20.202Z,348.75
2019-05-17T09:24:20.091Z,365.62
2019-05-17T09:25:22.009Z,382.50
2019-05-17T09:26:20.181Z,382.50
2019-05-17T09:27:20.057Z,382.50
2019-05-17T09:28:20.855Z,388.12
2019-05-17T09:29:20.160Z,382.50
2019-05-17T09:30:20.479Z,382.50
2019-05-17T09:31:20.501Z,382.50
2019-05-17T09:32:20.308Z,371.25
2019-05-17T09:33:20.056Z,365.62
2019-05-17T09:34:20.288Z,382.50
2019-05-17T09:35:20.786Z,427.50
2019-05-17T09:36:20.463Z,489.38
2019-05-17T09:37:22.528Z,596.25
2019-05-17T09:38:20.484Z,708.75
2019-05-17T09:39:20.147Z,826.88
2019-05-17T09:40:20.152Z,933.75
2019-05-17T09:41:20.146Z,1040.62
2019-05-17T09:42:21.022Z,1051.88
2019-05-17T09:43:20.487Z,1012.50
2019-05-17T09:44:20.661Z,1018.12
2019-05-17T09:45:20.336Z,1018.12
2019-05-17T09:46:19.926Z,939.38
2019-05-17T09:47:20.606Z,855.00
2019-05-17T09:48:19.879Z,804.38
2019-05-17T09:49:19.824Z,736.88
2019-05-17T09:50:20.099Z,641.25
2019-05-17T09:51:19.788Z,590.62
2019-05-17T09:52:20.083Z,585.00
2019-05-17T09:53:20.285Z,618.75
2019-05-17T09:54:19.778Z,686.25
2019-05-17T09:55:19.798Z,720.00
2019-05-17T09:56:20.621Z,787.50
2019-05-17T09:57:20.445Z,871.88
2019-05-17T09:58:21.660Z,1006.88
2019-05-17T09:59:20.397Z,1125.00
2019-05-17T10:00:20.790Z,1170.00
2019-05-17T10:01:20.451Z,1141.88
2019-05-17T10:02:20.405Z,1125.00
2019-05-17T10:03:23.758Z,1119.38
2019-05-17T10:04:19.924Z,1141.88
2019-05-17T10:05:20.177Z,1231.88
2019-05-17T10:06:20.206Z,1411.88
2019-05-17T10:07:20.742Z,1563.75
2019-05-17T10:08:19.654Z,1648.12
2019-05-17T10:09:19.895Z,1726.88
2019-05-17T10:10:20.248Z,1760.62
2019-05-17T10:11:20.300Z,1760.62
2019-05-17T10:12:20.237Z,1760.62
2019-05-17T10:13:20.239Z,1648.12
2019-05-17T10:14:27.609Z,1530.00
2019-05-17T10:15:20.904Z,1490.62
2019-05-17T10:16:20.343Z,1428.75
2019-05-17T10:17:21.159Z,1310.62
2019-05-17T10:18:20.063Z,1181.25
2019-05-17T10:19:21.865Z,1068.75
2019-05-17T10:20:20.066Z,967.50
2019-05-17T10:21:19.955Z,877.50
2019-05-17T10:22:20.003Z,838.12
2019-05-17T10:23:19.733Z,759.38
2019-05-17T10:24:20.049Z,703.12
2019-05-17T10:25:20.433Z,652.50
2019-05-17T10:26:19.824Z,601.88
2019-05-17T10:27:19.716Z,568.12
2019-05-17T10:28:20.485Z,562.50
2019-05-17T10:29:19.376Z,596.25
2019-05-17T10:30:20.925Z,675.00
2019-05-17T10:31:19.791Z,832.50
2019-05-17T10:32:20.562Z,945.00
2019-05-17T10:33:20.008Z,950.62
2019-05-17T10:34:20.429Z,905.62
2019-05-17T10:35:19.905Z,956.25
2019-05-17T10:36:20.215Z,984.38
2019-05-17T10:37:20.299Z,911.25
2019-05-17T10:38:19.608Z,753.75
2019-05-17T10:39:19.425Z,646.88
2019-05-17T10:40:20.783Z,601.88
2019-05-17T10:41:19.903Z,568.12
2019-05-17T10:42:20.951Z,568.12
2019-05-17T10:43:20.423Z,607.50
2019-05-17T10:44:19.854Z,652.50
2019-05-17T10:45:19.877Z,641.25
2019-05-17T10:46:20.626Z,579.38
2019-05-17T10:47:19.624Z,579.38
2019-05-17T10:48:21.162Z,624.38
2019-05-17T10:49:20.237Z,669.38
2019-05-17T10:50:20.566Z,663.75
2019-05-17T10:51:20.211Z,669.38
2019-05-17T10:52:20.284Z,658.12
2019-05-17T10:53:20.475Z,573.75
2019-05-17T10:54:20.686Z,483.75
2019-05-17T10:55:19.984Z,438.75
2019-05-17T10:56:19.933Z,416.25
2019-05-17T10:57:19.529Z,388.12
2019-05-17T10:58:21.296Z,365.62
2019-05-17T10:59:20.327Z,354.38
2019-05-17T11:00:19.754Z,337.50
2019-05-17T11:01:20.048Z,309.38
2019-05-17T11:02:19.647Z,286.88
2019-05-17T11:03:20.325Z,281.25
2019-05-17T11:04:19.769Z,281.25
2019-05-17T11:05:20.113Z,286.88
2019-05-17T11:06:19.766Z,292.50
2019-05-17T11:07:19.924Z,298.12
2019-05-17T11:08:19.763Z,320.62
2019-05-17T11:09:20.435Z,337.50
2019-05-17T11:10:19.460Z,365.62
2019-05-17T11:11:20.013Z,376.88
2019-05-17T11:12:18.952Z,382.50
2019-05-17T11:13:18.938Z,376.88
2019-05-17T11:14:19.864Z,371.25
2019-05-17T11:15:18.867Z,360.00
2019-05-17T11:16:18.836Z,360.00
2019-05-17T11:17:18.841Z,348.75
2019-05-17T11:18:18.821Z,337.50
2019-05-17T11:19:18.837Z,331.88
2019-05-17T11:20:18.798Z,337.50
2019-05-17T11:21:18.785Z,343.12
2019-05-17T11:22:18.853Z,360.00
2019-05-17T11:23:18.800Z,388.12
2019-05-17T11:24:18.787Z,410.62
2019-05-17T11:25:18.743Z,421.88
2019-05-17T11:26:18.726Z,444.38
2019-05-17T11:27:18.729Z,478.12
2019-05-17T11:28:18.739Z,495.00
2019-05-17T11:29:18.725Z,517.50
2019-05-17T11:30:18.696Z,528.75
2019-05-17T11:31:18.697Z,551.25
2019-05-17T11:32:18.660Z,590.62
2019-05-17T11:33:18.682Z,635.62
2019-05-17T11:34:18.694Z,652.50
2019-05-17T11:35:18.629Z,630.00
2019-05-17T11:36:18.655Z,601.88
2019-05-17T11:37:18.615Z,596.25
2019-05-17T11:38:18.593Z,596.25
2019-05-17T11:39:18.668Z,624.38
2019-05-17T11:40:18.575Z,691.88
2019-05-17T11:41:21.628Z,759.38
2019-05-17T11:42:18.544Z,849.38
2019-05-17T11:43:18.538Z,950.62
2019-05-17T11:44:18.559Z,1096.88
2019-05-17T11:45:27.145Z,1209.38
2019-05-17T11:46:19.525Z,1254.38
2019-05-17T11:47:18.514Z,1288.12
2019-05-17T11:48:18.491Z,1406.25
2019-05-17T11:49:18.509Z,1513.12
2019-05-17T11:50:18.510Z,1620.00
2019-05-17T11:51:18.447Z,1732.50
2019-05-17T11:52:18.438Z,1856.25
2019-05-17T11:53:18.480Z,2115.00
2019-05-17T11:54:18.525Z,2008.12
2019-05-17T11:55:18.407Z,1715.62
2019-05-17T11:56:18.403Z,1603.12
2019-05-17T11:57:18.384Z,1153.12
2019-05-17T11:58:18.394Z,798.75
2019-05-17T11:59:18.411Z,556.88
2019-05-17T12:00:18.354Z,405.00
2019-05-17T12:01:18.337Z,348.75
2019-05-17T12:02:21.356Z,315.00
2019-05-17T12:03:18.338Z,298.12
2019-05-17T12:04:18.336Z,286.88
2019-05-17T12:05:18.294Z,298.12
2019-05-17T12:06:18.293Z,315.00
2019-05-17T12:07:18.295Z,326.25
2019-05-17T12:08:18.256Z,348.75
2019-05-17T12:09:18.285Z,399.38
2019-05-17T12:10:18.254Z,433.12
2019-05-17T12:11:18.245Z,450.00
2019-05-17T12:12:18.242Z,500.62
2019-05-17T12:13:18.207Z,585.00
2019-05-17T12:14:18.218Z,646.88
2019-05-17T12:15:18.179Z,686.25
2019-05-17T12:16:18.169Z,708.75
2019-05-17T12:17:18.158Z,770.62
2019-05-17T12:18:18.148Z,855.00
2019-05-17T12:19:18.175Z,905.62
2019-05-17T12:20:18.171Z,866.25
2019-05-17T12:21:18.112Z,804.38
2019-05-17T12:22:18.099Z,714.38
2019-05-17T12:23:18.090Z,680.62
2019-05-17T12:24:18.117Z,742.50
2019-05-17T12:25:18.073Z,838.12
2019-05-17T12:26:18.069Z,770.62
2019-05-17T12:27:18.086Z,641.25
2019-05-17T12:28:18.075Z,528.75
2019-05-17T12:29:18.064Z,466.88
2019-05-17T12:30:18.040Z,421.88
2019-05-17T12:31:17.998Z,376.88
2019-05-17T12:32:17.992Z,337.50
2019-05-17T12:33:17.986Z,292.50
2019-05-17T12:34:17.965Z,275.62
2019-05-17T12:35:18.869Z,270.00
2019-05-17T12:36:17.960Z,270.00
2019-05-17T12:37:17.935Z,270.00
2019-05-17T12:38:17.927Z,275.62
2019-05-17T12:39:17.909Z,292.50
2019-05-17T12:40:17.931Z,309.38